Latest Coastal Weather Observations for Cerberus

IDV60701

Issued at 3:15 am EDT Friday 31 October 2014 (issued every 10 minutes, with the page automatically refreshed every 10 minutes)

About coastal observations | Map of coastal stations | Coastal observations for VIC | Marine services | Other Formats
Station Details ID: 086361 Name: CERBERUS Lat: -38.36 Lon: 145.18 Height: 12.69 m
Data from the previous 72 hours. | See also: Recent months at Cerberus
Date/Time
EDT
Temp

°C
Wind Pressure Rain
since 9am
mm
Weather Cloud Vis
km
Sea
Height
m
Swell
Dir
 
Speed
knots
Gust
knots
hPa Trend Height
m
Period
s
Dir
31/03:00am 6.6 S 0 0 1011.6 - 0.0 - - - - - - -
31/02:30am 6.7 CALM 0 2 1011.9 - 0.0 - - - - - - -
31/02:00am 7.5 CALM 0 0 1012.5 - 0.0 - - - - - - -
31/01:30am 7.5 CALM 0 0 1013.3 - 0.0 - - - - - - -
31/01:00am 8.0 CALM 0 0 1013.6 - 0.0 - - - - - - -
31/12:30am 8.1 S 1 2 1013.7 - 0.0 - - - - - - -
31/12:00am 8.7 S 0 0 1013.9 - 0.0 - - - - - - -
 
Date/Time
EDT
Temp

°C
Wind Pressure Rain
since 9am
mm
Weather Cloud Vis
km
Sea
Height
m
Swell
Dir
 
Speed
knots
Gust
knots
hPa Trend Height
m
Period
s
Dir
30/11:30pm 9.0 S 1 2 1014.0 - 0.0 - - - - - - -
30/11:00pm 9.7 CALM 0 0 1014.1 - 0.0 - - - - - - -
30/10:30pm 10.1 CALM 0 0 1014.1 - 0.0 - - - - - - -
30/10:00pm 10.9 CALM 0 0 1014.1 - 0.0 - - - - - - -
30/09:30pm 11.6 S 3 3 1014.0 - 0.0 - - - - - - -
30/09:00pm 12.2 S 2 3 1013.7 - 0.0 - - - - - - -
30/08:30pm 12.6 S 3 4 1013.6 - 0.0 - - - - - - -
30/08:00pm 13.2 S 4 6 1013.6 - 0.0 - - - - - - -
30/07:30pm 14.1 S 5 8 1013.4 - 0.0 - - - - - - -
30/07:00pm 14.7 S 7 12 1013.3 - 0.0 - - - - - - -
30/06:30pm 15.3 SSW 7 12 1013.3 - 0.0 - - - - - - -
30/06:00pm 15.5 SSW 9 14 1013.2 - 0.0 - - - - - - -
30/05:30pm 16.0 SSW 9 15 1013.1 - 0.0 - - - - - - -
30/05:00pm 16.6 SSW 9 14 1013.1 - 0.0 - - - - - - -
30/04:30pm 16.6 SSW 9 14 1013.2 - 0.0 - - - - - - -
30/04:00pm 17.1 SSW 9 13 1013.3 - 0.0 - - - - - - -
30/03:30pm 17.0 S 9 14 1013.3 - 0.0 - - - - - - -
30/03:00pm 17.2 SSW 9 12 1013.5 - 0.0 - - - - - - -
30/02:30pm 17.4 SSW 8 13 1013.6 - 0.0 - - - - - - -
30/02:00pm 17.6 S 6 9 1013.8 - 0.0 - - - - - - -
30/01:30pm 16.8 WSW 5 8 1014.0 - 0.0 - - - - - - -
30/01:00pm 17.1 WNW 8 13 1014.5 - 0.0 - - - - - - -
30/12:30pm 16.2 W 8 12 1014.9 - 0.0 - - - - - - -
30/12:00pm 16.5 WNW 8 16 1014.7 - 0.0 - - - - - - -
30/11:30am 17.3 WNW 9 13 1014.9 - 0.0 - - - - - - -
30/11:00am 15.8 WNW 8 11 1015.1 - 0.0 - - - - - - -
30/10:30am 15.4 W 8 13 1015.5 - 0.0 - - - - - - -
30/10:00am 15.8 WNW 8 15 1015.4 - 0.0 - - - - - - -
30/09:30am 14.8 WNW 8 12 1015.4 - 0.0 - - - - - - -
30/09:00am 14.4 WNW 9 13 1015.3 - 0.0 - - - - - - -
30/08:30am 14.1 WNW 7 13 1015.3 - 0.0 - - - - - - -
30/08:00am 14.2 WNW 7 13 1014.7 - 0.0 - - - - - - -
30/07:30am 13.6 WNW 5 8 1014.8 - 0.0 - - - - - - -
30/07:00am 13.0 NNW 3 5 1014.4 - 0.0 - - - - - - -
30/06:30am 12.8 NNW 5 8 1013.9 - 0.0 - - - - - - -
30/06:00am 12.2 NNW 3 4 1013.8 - 0.0 - - - - - - -
30/05:30am 12.9 NNW 3 5 1014.1 - 0.0 - - - - - - -
30/05:00am 12.8 N 2 4 1014.2 - 0.0 - - - - - - -
30/04:30am 12.6 N 2 3 1014.1 - 0.0 - - - - - - -
30/04:00am 12.5 N 2 3 1014.0 - 0.0 - - - - - - -
30/03:30am 12.6 N 3 4 1014.0 - 0.0 - - - - - - -
30/03:00am 12.7 N 2 4 1014.4 - 0.0 - - - - - - -
30/02:30am 12.7 N 3 4 1014.5 - 0.0 - - - - - - -
30/02:00am 12.5 N 1 2 1014.9 - 0.0 - - - - - - -
30/01:30am 12.2 N 2 4 1015.2 - 0.0 - - - - - - -
30/01:00am 11.8 N 2 4 1015.8 - 0.0 - - - - - - -
30/12:30am 11.4 N 3 5 1015.9 - 0.0 - - - - - - -
30/12:00am 10.6 N 3 3 1016.0 - 0.0 - - - - - - -
 
Date/Time
EDT
Temp

°C
Wind Pressure Rain
since 9am
mm
Weather Cloud Vis
km
Sea
Height
m
Swell
Dir
 
Speed
knots
Gust
knots
hPa Trend Height
m
Period
s
Dir
29/11:30pm 10.6 N 3 4 1016.0 - 0.0 - - - - - - -
29/11:00pm 10.9 NW 3 5 1016.0 - 0.0 - - - - - - -
29/10:30pm 10.9 SSW 3 3 1016.1 - 0.0 - - - - - - -
29/10:00pm 11.6 SSW 2 3 1016.2 - 0.0 - - - - - - -
29/09:30pm 13.2 SSW 4 8 1016.2 - 0.0 - - - - - - -
29/09:00pm 12.9 SSW 4 6 1016.0 - 0.0 - - - - - - -
29/08:30pm 12.9 SSW 3 5 1015.7 - 0.0 - - - - - - -
29/08:00pm 13.4 S 4 6 1015.6 - 0.0 - - - - - - -
29/07:30pm 13.9 S 5 8 1015.5 - 0.0 - - - - - - -
29/07:00pm 14.5 S 7 12 1015.2 - 0.0 - - - - - - -
29/06:30pm 15.5 SSW 10 14 1014.9 - 0.0 - - - - - - -
29/06:00pm 16.3 SW 10 17 1014.8 - 0.0 - - - - - - -
29/05:30pm 17.4 SSW 7 11 1014.8 - 0.0 - - - - - - -
29/05:00pm 16.7 S 8 12 1014.8 - 0.0 - - - - - - -
29/04:30pm 17.1 S 7 11 1014.7 - 0.0 - - - - - - -
29/04:00pm 18.6 W 9 12 1014.9 - 0.0 - - - - - - -
29/03:30pm 18.8 W 7 11 1015.3 - 0.0 - - - - - - -
29/03:00pm 18.3 W 7 13 1015.8 - 0.0 - - - - - - -
29/02:30pm 17.3 NW 8 13 1016.2 - 0.0 - - - - - - -
29/02:00pm 17.0 WNW 7 13 1016.7 - 0.0 - - - - - - -
29/01:30pm 15.7 NW 8 12 1017.1 - 0.0 - - - - - - -
29/01:00pm 14.6 WNW 6 10 1017.4 - 0.0 - - - - - - -
29/12:30pm 14.5 W 9 13 1017.7 - 0.0 - - - - - - -
29/12:00pm 13.7 W 7 9 1018.1 - 0.0 - - - - - - -
29/11:30am 14.4 WNW 7 12 1018.2 - 0.0 - - - - - - -
29/11:00am 14.6 WNW 9 13 1018.3 - 0.0 - - - - - - -
29/10:30am 14.4 WNW 8 13 1018.3 - 0.0 - - - - - - -
29/10:00am 14.0 WNW 9 13 1018.3 - 0.0 - - - - - - -
29/09:30am 14.1 W 5 8 1018.3 - 0.0 - - - - - - -
29/09:00am 13.3 WNW 8 13 1018.3 - 1.4 - - - - - - -
29/08:30am 12.8 NW 8 12 1018.2 - 1.4 - - - - - - -
29/08:00am 12.7 WNW 7 11 1018.1 - 1.4 - - - - - - -
29/07:30am 12.5 WNW 5 10 1017.8 - 1.4 - - - - - - -
29/07:00am 12.1 NW 6 10 1017.7 - 1.4 - - - - - - -
29/06:30am 11.8 NW 5 7 1017.4 - 1.4 - - - - - - -
29/06:00am 11.6 NW 4 8 1017.0 - 1.4 - - - - - - -
29/05:30am 11.7 NW 4 6 1016.8 - 1.4 - - - - - - -
29/05:00am 11.7 NW 6 9 1016.5 - 1.4 - - - - - - -
29/04:30am 11.6 NW 5 7 1016.4 - 1.4 - - - - - - -
29/04:00am 10.8 WNW 3 4 1016.3 - 1.4 - - - - - - -
29/03:30am 11.9 WNW 5 7 1016.3 - 1.4 - - - - - - -
29/03:00am 12.1 WNW 5 9 1016.3 - 1.4 - - - - - - -
29/02:30am 12.2 WNW 4 6 1016.2 - 1.4 - - - - - - -
29/02:00am 12.2 W 5 8 1016.3 - 1.4 - - - - - - -
29/01:30am 12.3 W 5 8 1016.7 - 1.4 - - - - - - -
29/01:00am 12.3 W 5 8 1016.8 - 1.4 - - - - - - -
29/12:30am 11.9 WNW 4 7 1017.0 - 1.4 - - - - - - -
29/12:00am 11.3 WNW 5 9 1016.9 - 1.4 - - - - - - -
 
Date/Time
EDT
Temp

°C
Wind Pressure Rain
since 9am
mm
Weather Cloud Vis
km
Sea
Height
m
Swell
Dir
 
Speed
knots
Gust
knots
hPa Trend Height
m
Period
s
Dir
28/11:30pm 11.2 W 5 8 1016.7 - 1.4 - - - - - - -
28/11:00pm 11.6 W 7 11 1016.7 - 1.4 - - - - - - -
28/10:30pm 11.9 W 8 13 1016.5 - 1.4 - - - - - - -
28/10:00pm 12.1 W 8 12 1016.5 - 1.4 - - - - - - -
28/09:30pm 12.0 WSW 11 17 1016.4 - 1.4 - - - - - - -
28/09:00pm 13.0 WSW 7 11 1016.0 - 1.4 - - - - - - -
28/08:30pm 13.1 WSW 11 17 1015.5 - 1.4 - - - - - - -
28/08:00pm 12.8 WSW 11 16 1015.2 - 1.4 - - - - - - -
28/07:30pm 13.3 WSW 10 17 1014.7 - 1.4 - - - - - - -
28/07:00pm 13.7 WSW 14 20 1014.2 - 1.4 - - - - - - -
28/06:30pm 14.2 WSW 12 19 1013.8 - 1.4 - - - - - - -
28/06:00pm 14.1 WSW 14 23 1013.5 - 1.4 - - - - - - -
28/05:30pm 14.7 SW 12 19 1013.2 - 1.4 - - - - - - -
28/05:00pm 15.3 SW 15 22 1012.8 - 1.4 - - - - - - -
28/04:30pm 15.2 WSW 16 22 1012.7 - 1.4 - - - - - - -
28/04:00pm 16.8 WSW 15 22 1012.3 - 1.4 - - - - - - -
28/03:30pm 17.2 WSW 13 19 1012.2 - 1.4 - - - - - - -
28/03:00pm 16.1 WSW 12 22 1012.1 - 1.4 - - - - - - -
28/02:30pm 16.9 WSW 15 22 1011.6 - 1.4 - - - - - - -
28/02:00pm 16.4 W 15 22 1011.4 - 1.4 - - - - - - -
28/01:49pm 17.1 W 15 26 1011.1 - 1.4 - - - - - - -
28/01:30pm 16.3 WNW 13 19 1011.2 - 1.4 - - - - - - -
28/01:00pm 16.0 W 11 18 1010.8 - 1.4 - - - - - - -
28/12:30pm 14.6 W 8 12 1010.9 - 1.4 - - - - - - -
28/12:00pm 12.9 WSW 12 17 1010.9 - 0.8 Rain - - - - - -
28/11:30am 15.4 W 12 18 1010.6 - 0.0 - - - - - - -
28/11:00am 15.8 WNW 13 20 1010.5 - 0.0 - - - - - - -
28/10:30am 15.9 WNW 15 25 1010.0 - 0.0 - - - - - - -
28/10:00am 14.7 WNW 12 18 1009.8 - 0.0 - - - - - - -
28/09:30am 13.0 WNW 18 29 1010.2 - 0.0 - - - - - - -
28/09:09am 15.1 WNW 15 26 1009.7 - 0.0 - - - - - - -
28/09:00am 14.0 WNW 13 19 1009.7 - 0.4 - - - - - - -
28/08:30am 14.4 WNW 13 25 1009.1 - 0.4 - - - - - - -
28/08:02am 13.3 WNW 15 26 1009.1 - 0.4 - - - - - - -
28/08:00am 13.3 WNW 13 21 1009.1 - 0.4 - - - - - - -
28/07:30am 13.3 NW 15 25 1008.7 - 0.4 - - - - - - -
28/07:26am 13.3 NW 15 25 1008.7 - 0.4 - - - - - - -
28/07:00am 13.1 WNW 14 22 1008.8 - 0.4 - - - - - - -
28/06:37am 13.0 WNW 15 27 1008.6 - 0.4 - - - - - - -
28/06:30am 13.2 WNW 13 26 1008.7 - 0.4 - - - - - - -
28/06:11am 13.1 NW 15 27 1008.5 - 0.4 - - - - - - -
28/06:00am 13.0 WNW 14 23 1008.6 - 0.4 - - - - - - -
28/05:30am 12.9 NW 12 20 1008.4 - 0.4 - - - - - - -
28/05:00am 12.4 NW 13 20 1008.2 - 0.4 - - - - - - -
28/04:30am 12.2 NW 13 20 1008.2 - 0.4 - - - - - - -
28/04:00am 12.1 NW 13 22 1008.7 - 0.4 - - - - - - -
28/03:30am 12.0 NW 13 20 1008.7 - 0.4 - - - - - - -

Other Formats:

Comma delimited format used in spreadsheet applications
http://www.bom.gov.au/fwo/IDV60701/IDV60701.94898.axf

JavaScript Object Notation format (JSON) in row-major order
http://www.bom.gov.au/fwo/IDV60701/IDV60701.94898.json